Time;durP1;ratioP1;P1;durP2;ratioP2;P2;SDS_P1;SDS_P2;PMS_P1;PMS_P2;Temp;Humidity;BMP_temperature;BMP_pressure;BME280_temperature;BME280_humidity;BME280_pressure;Samples;Min_cycle;Max_cycle;Signal;HPM_P1;HPM_P2
2023/03/02 00:00:16;;;;;;;;;33.00;24.50;;;;;3.51;70.98;101808.22;5035558;28;62408;-81
2023/03/02 00:02:42;;;;;;;;;33.50;21.00;;;;;3.51;71.24;101798.81;5035979;28;45507;-81
2023/03/02 00:05:09;;;;;;;;;28.25;23.75;;;;;3.51;70.98;101797.94;5035660;28;45483;-81
2023/03/02 00:07:36;;;;;;;;;42.75;30.00;;;;;3.51;72.10;101796.25;5034772;28;64371;-82
2023/03/02 00:10:01;;;;;;;;;43.50;27.00;;;;;3.49;72.79;101791.06;5034557;28;45353;-82
2023/03/02 00:12:27;;;;;;;;;37.25;29.00;;;;;3.48;72.28;101801.31;5033200;28;62407;-81
2023/03/02 00:14:53;;;;;;;;;30.00;23.50;;;;;3.45;72.79;101803.84;5034168;28;46578;-81
2023/03/02 00:17:26;;;;;;;;;40.75;25.00;;;;;3.41;73.10;101804.63;5035559;28;45501;-81
2023/03/02 00:20:10;;;;;;;;;39.25;29.50;;;;;3.37;72.96;101815.72;5035557;28;45473;-81
2023/03/02 00:22:40;;;;;;;;;32.75;29.00;;;;;3.34;73.93;101813.09;5035766;28;45310;-81
2023/03/02 00:25:06;;;;;;;;;41.25;35.25;;;;;3.25;74.47;101803.47;5034126;28;45565;-81
2023/03/02 00:27:31;;;;;;;;;49.75;35.00;;;;;3.21;74.43;101802.59;5035118;28;45504;-81
2023/03/02 00:29:57;;;;;;;;;49.25;37.00;;;;;3.25;74.45;101806.94;5034877;28;59636;-81
2023/03/02 00:32:22;;;;;;;;;47.25;33.00;;;;;3.23;75.45;101800.00;5034636;28;60087;-82
2023/03/02 00:34:48;;;;;;;;;48.00;36.50;;;;;3.22;74.69;101808.59;5035210;28;45364;-82
2023/03/02 00:37:13;;;;;;;;;55.50;42.50;;;;;3.20;74.62;101816.28;5034891;28;53204;-81
2023/03/02 00:39:38;;;;;;;;;47.00;35.75;;;;;3.18;74.88;101807.66;5033346;28;63063;-81
2023/03/02 00:42:04;;;;;;;;;43.75;37.00;;;;;3.15;75.29;101802.44;5034078;28;63952;-81
2023/03/02 00:44:29;;;;;;;;;54.00;44.00;;;;;3.09;74.82;101804.91;5035285;28;45434;-81
2023/03/02 00:46:54;;;;;;;;;50.00;35.00;;;;;3.07;75.70;101806.59;5034334;28;66669;-81
2023/03/02 00:49:21;;;;;;;;;55.00;42.00;;;;;3.03;76.11;101803.09;5033470;28;45353;-81
2023/03/02 00:51:46;;;;;;;;;58.50;38.75;;;;;3.00;75.34;101808.16;5033933;28;45503;-81
2023/03/02 00:54:12;;;;;;;;;47.75;38.00;;;;;2.98;76.12;101804.69;5034055;28;69562;-81
2023/03/02 00:56:37;;;;;;;;;54.25;37.50;;;;;2.94;76.10;101808.06;5034631;28;45380;-81
2023/03/02 00:59:09;;;;;;;;;44.50;31.50;;;;;2.90;76.51;101804.56;5035669;28;45380;-81
2023/03/02 01:01:36;;;;;;;;;43.25;34.50;;;;;2.88;76.64;101805.38;5038391;28;45313;-81
2023/03/02 01:04:01;;;;;;;;;42.00;35.50;;;;;2.85;76.24;101810.44;5038289;28;45390;-81
2023/03/02 01:06:27;;;;;;;;;50.50;41.00;;;;;2.81;77.20;101804.38;5037019;28;45385;-81
2023/03/02 01:08:52;;;;;;;;;32.75;32.75;;;;;2.80;76.91;101804.34;5036333;28;60967;-81
2023/03/02 01:11:20;;;;;;;;;56.00;42.25;;;;;2.80;78.02;101805.19;5038047;28;45384;-81
2023/03/02 01:13:46;;;;;;;;;46.25;39.25;;;;;2.76;77.23;101805.97;5038197;28;45614;-81
2023/03/02 01:16:12;;;;;;;;;65.25;44.50;;;;;2.77;77.89;101818.00;5037811;28;45827;-81
2023/03/02 01:18:38;;;;;;;;;57.50;43.75;;;;;2.74;78.18;101805.09;5036739;28;45367;-81
2023/03/02 01:21:06;;;;;;;;;52.50;40.75;;;;;2.74;77.92;101804.22;5038217;28;45430;-81
2023/03/02 01:23:31;;;;;;;;;65.00;38.50;;;;;2.70;78.29;101799.00;5037865;28;46201;-81
2023/03/02 01:25:57;;;;;;;;;53.00;37.00;;;;;2.67;78.08;101805.78;5037553;28;45722;-81
2023/03/02 01:28:22;;;;;;;;;43.50;36.00;;;;;2.64;78.49;101803.19;5037973;28;45424;-81
2023/03/02 01:30:47;;;;;;;;;47.50;34.50;;;;;2.60;78.82;101799.66;5036925;28;63874;-81
2023/03/02 01:33:13;;;;;;;;;46.25;32.00;;;;;2.56;79.27;101800.41;5037629;28;46809;-81
2023/03/02 01:35:38;;;;;;;;;44.00;33.75;;;;;2.53;80.15;101805.50;5037436;28;50674;-81
2023/03/02 01:38:03;;;;;;;;;50.25;36.25;;;;;2.48;79.74;101794.25;5036991;28;63980;-81
2023/03/02 01:40:29;;;;;;;;;40.75;33.50;;;;;2.43;80.05;101794.16;5036728;28;59413;-81
2023/03/02 01:42:57;;;;;;;;;35.50;31.25;;;;;2.40;80.41;101798.38;5037461;28;47072;-81
2023/03/02 01:45:59;;;;;;;;;43.25;30.00;;;;;2.38;81.05;101792.31;5036393;28;45318;-81
2023/03/02 01:48:29;;;;;;;;;39.00;30.25;;;;;2.33;81.53;101782.81;5015303;28;45466;-81
2023/03/02 01:50:56;;;;;;;;;52.25;33.50;;;;;2.30;81.70;101776.72;5015447;28;45483;-81
2023/03/02 01:53:24;;;;;;;;;48.75;31.00;;;;;2.29;82.01;101781.00;4998670;28;45561;-81
2023/03/02 01:55:50;;;;;;;;;45.50;32.50;;;;;2.26;81.93;101778.38;4998496;28;45847;-81
2023/03/02 01:58:16;;;;;;;;;43.25;31.75;;;;;2.24;81.98;101786.88;5015350;28;45560;-81
2023/03/02 02:00:42;;;;;;;;;43.50;31.75;;;;;2.22;81.87;101771.44;4998768;28;45542;-81
2023/03/02 02:03:13;;;;;;;;;41.25;29.25;;;;;2.21;82.50;101777.41;4998595;28;45439;-81
2023/03/02 02:05:42;;;;;;;;;19.25;12.00;;;;;2.18;82.23;101777.34;4998677;28;45816;-81
2023/03/02 02:08:08;;;;;;;;;44.25;31.00;;;;;2.19;82.78;101775.63;5015199;28;45649;-81
2023/03/02 02:10:34;;;;;;;;;43.00;31.25;;;;;2.18;82.82;101779.06;4997977;28;45315;-81
2023/03/02 02:13:00;;;;;;;;;38.50;25.75;;;;;2.15;83.29;101771.25;4998483;28;46373;-81
2023/03/02 02:15:25;;;;;;;;;36.50;27.75;;;;;2.11;83.42;101773.75;4998043;28;45375;-81
2023/03/02 02:17:53;;;;;;;;;42.75;35.00;;;;;2.11;84.86;101766.06;5014350;28;61669;-81
2023/03/02 02:20:30;;;;;;;;;37.75;30.00;;;;;2.12;84.60;101766.94;4998660;28;45508;-81
2023/03/02 02:23:20;;;;;;;;;52.00;33.50;;;;;2.14;83.64;101765.28;5024203;28;46924;-82
2023/03/02 02:25:57;;;;;;;;;47.75;33.00;;;;;2.12;84.02;101767.81;5036963;28;46010;-81
2023/03/02 02:28:32;;;;;;;;;35.00;32.50;;;;;2.15;84.81;101771.25;5037062;28;45494;-81
2023/03/02 02:31:25;;;;;;;;;39.00;28.50;;;;;2.11;84.25;101768.63;5035795;28;45401;-82
2023/03/02 02:33:54;;;;;;;;;29.25;23.00;;;;;2.08;84.30;101765.09;5035518;28;45468;-81
2023/03/02 02:36:22;;;;;;;;;44.50;31.50;;;;;2.04;85.28;101774.44;5035686;28;45950;-81
2023/03/02 02:38:51;;;;;;;;;41.50;31.75;;;;;2.01;85.01;101768.41;5035436;28;45446;-81
2023/03/02 02:41:20;;;;;;;;;41.00;30.50;;;;;1.97;84.81;101761.44;5035542;28;45413;-81
2023/03/02 02:43:46;;;;;;;;;33.50;27.75;;;;;1.96;84.83;101764.84;5035066;28;45679;-81
2023/03/02 02:46:11;;;;;;;;;38.75;27.25;;;;;1.95;84.74;101753.72;5035478;28;45444;-81
2023/03/02 02:48:37;;;;;;;;;40.50;29.75;;;;;1.97;85.27;101751.16;5035900;28;62074;-81
2023/03/02 02:51:06;;;;;;;;;43.00;28.50;;;;;2.00;85.89;101751.25;5003875;28;45390;-82
2023/03/02 02:53:41;;;;;;;;;46.75;32.50;;;;;1.99;85.85;101740.13;4998514;28;45346;-81
2023/03/02 02:56:08;;;;;;;;;31.00;19.00;;;;;1.98;86.20;101745.22;4998816;28;45473;-81
2023/03/02 02:58:42;;;;;;;;;41.75;34.00;;;;;1.94;86.02;101755.41;4998873;28;45374;-81
2023/03/02 03:01:13;;;;;;;;;53.50;31.25;;;;;1.92;86.61;101751.94;4998929;28;45363;-82
2023/03/02 03:03:38;;;;;;;;;39.00;29.50;;;;;1.89;86.09;101749.28;4998625;28;45497;-81
2023/03/02 03:06:07;;;;;;;;;30.50;24.25;;;;;1.88;85.78;101742.44;5016388;28;45480;-81
2023/03/02 03:08:44;;;;;;;;;31.50;26.00;;;;;1.90;86.84;101743.34;5016192;28;45427;-82
2023/03/02 03:11:12;;;;;;;;;33.00;27.00;;;;;1.90;87.13;101740.75;5016540;28;45386;-81
2023/03/02 03:13:39;;;;;;;;;31.75;27.75;;;;;1.88;87.51;101741.56;5016196;28;46489;-81
2023/03/02 03:16:06;;;;;;;;;37.50;22.00;;;;;1.85;87.30;101744.91;5032171;28;45910;-82
2023/03/02 03:18:32;;;;;;;;;39.25;27.50;;;;;1.87;87.85;101752.66;5036176;28;45471;-81
2023/03/02 03:20:57;;;;;;;;;32.25;28.00;;;;;1.86;87.98;101749.22;5035179;28;63275;-81
2023/03/02 03:23:22;;;;;;;;;38.00;32.75;;;;;1.86;88.28;101745.81;4999734;28;73363;-81
2023/03/02 03:25:48;;;;;;;;;35.50;26.00;;;;;1.85;87.15;101744.91;5035850;28;51275;-82
2023/03/02 03:28:13;;;;;;;;;37.25;30.00;;;;;1.88;87.70;101747.56;5018499;28;45441;-81
2023/03/02 03:30:39;;;;;;;;;37.25;24.00;;;;;1.91;86.80;101746.75;5035131;28;65662;-81
2023/03/02 03:33:04;;;;;;;;;46.25;30.00;;;;;1.91;87.53;101744.19;5018327;28;45404;-81
2023/03/02 03:35:30;;;;;;;;;36.75;29.50;;;;;1.93;87.60;101748.53;5034825;28;65031;-82
2023/03/02 03:37:55;;;;;;;;;34.00;30.00;;;;;1.94;86.97;101746.84;5035334;28;57820;-82
2023/03/02 03:40:21;;;;;;;;;33.25;26.00;;;;;2.00;87.07;101748.66;5036051;28;45314;-82
2023/03/02 03:42:46;;;;;;;;;41.25;32.25;;;;;2.03;86.74;101748.75;5035549;28;46246;-81
2023/03/02 03:45:12;;;;;;;;;43.25;33.00;;;;;2.05;87.76;101747.09;5035760;28;45556;-81
2023/03/02 03:47:37;;;;;;;;;41.75;34.50;;;;;2.04;86.90;101741.06;5035796;28;45422;-82
2023/03/02 03:50:03;;;;;;;;;38.50;21.00;;;;;2.00;87.32;101739.25;5010664;28;45435;-81
2023/03/02 03:52:31;;;;;;;;;39.25;24.75;;;;;2.00;87.00;101746.97;5015628;28;47259;-82
2023/03/02 03:55:00;;;;;;;;;33.75;25.75;;;;;1.94;87.38;101741.69;5015741;28;45871;-81
2023/03/02 03:57:26;;;;;;;;;34.00;28.00;;;;;1.93;86.68;101743.41;5015912;28;45388;-81
2023/03/02 03:59:52;;;;;;;;;38.00;26.50;;;;;1.94;87.10;101747.69;5016002;28;45243;-81
2023/03/02 04:02:17;;;;;;;;;42.50;30.25;;;;;1.92;88.76;101741.66;4997772;28;45343;-81
2023/03/02 04:04:44;;;;;;;;;38.25;32.25;;;;;1.90;87.81;101743.34;5015079;28;49608;-82
2023/03/02 04:07:10;;;;;;;;;35.50;31.00;;;;;1.90;88.19;101748.47;4998325;28;45353;-81
2023/03/02 04:09:36;;;;;;;;;38.50;24.25;;;;;1.91;88.46;101747.66;4997948;28;45366;-81
2023/03/02 04:12:02;;;;;;;;;42.00;28.50;;;;;1.91;88.79;101745.09;4998071;28;46442;-82
2023/03/02 04:14:29;;;;;;;;;40.00;33.50;;;;;1.93;88.71;101745.09;5000210;28;45883;-81
2023/03/02 04:16:55;;;;;;;;;44.75;29.00;;;;;1.94;87.89;101751.97;5035568;28;45326;-82
2023/03/02 04:19:20;;;;;;;;;29.75;21.25;;;;;1.94;88.16;101747.69;5034968;28;45517;-81
2023/03/02 04:21:48;;;;;;;;;36.00;30.50;;;;;1.97;88.81;101759.75;5034638;28;61793;-81
2023/03/02 04:24:15;;;;;;;;;48.00;34.50;;;;;1.96;88.92;101758.00;5035386;28;46027;-82
2023/03/02 04:26:41;;;;;;;;;41.50;30.75;;;;;1.93;88.92;101763.94;5017675;28;45362;-82
2023/03/02 04:29:07;;;;;;;;;45.50;30.75;;;;;1.89;88.38;101762.13;5035458;28;45476;-81
2023/03/02 04:31:33;;;;;;;;;45.50;29.50;;;;;1.87;88.51;101756.09;5035040;28;45495;-81
2023/03/02 04:33:59;;;;;;;;;39.50;31.75;;;;;1.87;88.87;101762.94;5036754;28;45385;-82
2023/03/02 04:36:25;;;;;;;;;43.75;34.75;;;;;1.88;88.89;101759.53;5038249;28;58043;-82
2023/03/02 04:38:50;;;;;;;;;43.00;27.50;;;;;1.88;89.09;101762.13;5020957;28;45328;-81
2023/03/02 04:41:16;;;;;;;;;36.75;30.50;;;;;1.87;88.64;101763.78;5038563;28;45419;-81
2023/03/02 04:43:41;;;;;;;;;42.25;32.50;;;;;1.87;89.35;101771.50;5038445;28;45375;-82
2023/03/02 04:46:08;;;;;;;;;45.75;30.00;;;;;1.84;89.64;101770.56;5038801;28;45408;-81
2023/03/02 04:48:33;;;;;;;;;37.25;29.75;;;;;1.81;89.35;101767.94;5028275;28;45347;-82
2023/03/02 04:50:58;;;;;;;;;46.00;33.75;;;;;1.81;89.50;101766.22;5038296;28;48868;-82
2023/03/02 04:53:24;;;;;;;;;43.00;29.00;;;;;1.82;89.56;101764.50;5037919;28;57131;-81
2023/03/02 04:55:49;;;;;;;;;53.00;33.50;;;;;1.82;89.96;101770.53;5038344;28;45378;-81
2023/03/02 04:58:14;;;;;;;;;32.75;28.50;;;;;1.78;90.02;101766.13;5037673;28;58902;-82
2023/03/02 05:00:40;;;;;;;;;43.25;31.50;;;;;1.79;90.01;101767.88;5037949;28;56561;-82
2023/03/02 05:03:06;;;;;;;;;44.50;34.50;;;;;1.80;89.71;101773.88;5037387;28;62322;-81
2023/03/02 05:05:32;;;;;;;;;37.25;29.25;;;;;1.79;89.52;101767.88;5037616;28;65733;-82
2023/03/02 05:07:58;;;;;;;;;42.50;28.75;;;;;1.78;89.41;101767.84;5037019;28;45346;-81
2023/03/02 05:10:25;;;;;;;;;39.25;30.50;;;;;1.77;89.92;101768.69;5038157;28;45403;-81
2023/03/02 05:13:00;;;;;;;;;22.75;3.00;;;;;1.74;90.30;101765.19;5036781;28;45419;-81
2023/03/02 05:15:29;;;;;;;;;42.50;34.50;;;;;1.75;89.86;101776.34;5037986;28;45475;-81
2023/03/02 05:17:54;;;;;;;;;37.75;30.50;;;;;1.74;89.89;101765.19;5037769;28;45479;-81
2023/03/02 05:20:20;;;;;;;;;30.00;23.00;;;;;1.74;90.98;101754.94;5037937;28;45516;-82
2023/03/02 05:22:46;;;;;;;;;43.25;34.75;;;;;1.71;90.64;101751.44;5037881;28;45440;-82
2023/03/02 05:25:11;;;;;;;;;39.50;29.50;;;;;1.71;90.13;101754.03;5053433;28;45389;-81
2023/03/02 05:27:37;;;;;;;;;45.50;32.25;;;;;1.72;90.40;101764.28;5038003;28;45365;-82
2023/03/02 05:30:04;;;;;;;;;41.00;30.00;;;;;1.74;91.43;101759.19;5037923;28;46159;-82
2023/03/02 05:32:29;;;;;;;;;40.00;31.50;;;;;1.73;92.08;101760.91;5036260;28;45912;-81
2023/03/02 05:34:54;;;;;;;;;44.00;32.00;;;;;1.71;90.97;101762.56;5037970;28;45331;-81
2023/03/02 05:37:20;;;;;;;;;42.50;34.00;;;;;1.68;92.00;101762.50;5037294;28;58490;-81
2023/03/02 05:39:45;;;;;;;;;43.50;36.00;;;;;1.62;91.62;101759.78;5036577;28;45966;-82
2023/03/02 05:42:10;;;;;;;;;52.50;38.00;;;;;1.58;91.90;101765.69;5037132;28;58083;-81
2023/03/02 05:44:36;;;;;;;;;44.00;31.00;;;;;1.52;92.05;101763.84;5036342;28;62538;-81
2023/03/02 05:47:01;;;;;;;;;44.50;30.25;;;;;1.49;92.19;101760.31;5036870;28;60208;-82
2023/03/02 05:49:26;;;;;;;;;49.00;36.25;;;;;1.45;92.73;101759.38;5035564;28;45388;-81
2023/03/02 05:51:52;;;;;;;;;47.75;38.00;;;;;1.42;92.64;101769.56;5017234;28;55804;-82
2023/03/02 05:54:17;;;;;;;;;53.75;36.25;;;;;1.40;93.01;101755.81;5017154;28;57597;-81
2023/03/02 05:56:42;;;;;;;;;48.00;33.75;;;;;1.42;92.45;101773.81;5017466;28;47904;-81
2023/03/02 05:59:08;;;;;;;;;43.50;36.50;;;;;1.41;93.35;101762.72;5017589;28;47742;-81
2023/03/02 06:01:35;;;;;;;;;49.25;36.25;;;;;1.42;92.87;101766.13;5016430;28;69657;-82
2023/03/02 06:04:01;;;;;;;;;44.25;30.75;;;;;1.41;93.24;101778.09;5017640;28;45414;-81
2023/03/02 06:06:26;;;;;;;;;49.00;33.00;;;;;1.40;92.83;101775.50;5000055;28;45422;-81
2023/03/02 06:08:52;;;;;;;;;44.25;36.00;;;;;1.39;93.02;101779.72;5017414;28;45421;-81
2023/03/02 06:11:17;;;;;;;;;43.50;33.75;;;;;1.39;93.08;101778.88;5017382;28;45457;-81
2023/03/02 06:13:42;;;;;;;;;46.25;39.00;;;;;1.39;93.07;101784.00;5017495;28;45319;-82
2023/03/02 06:16:08;;;;;;;;;44.75;35.00;;;;;1.38;94.12;101785.72;5033230;28;45341;-81
2023/03/02 06:18:34;;;;;;;;;51.00;36.25;;;;;1.38;93.52;101792.53;5037083;28;47283;-81
2023/03/02 06:21:00;;;;;;;;;47.50;35.00;;;;;1.35;93.91;101794.16;5019534;28;45785;-81
2023/03/02 06:23:25;;;;;;;;;34.50;30.75;;;;;1.34;93.36;101797.59;5037148;28;45314;-81
2023/03/02 06:25:51;;;;;;;;;52.00;32.00;;;;;1.35;93.29;101793.31;5037306;28;45365;-81
2023/03/02 06:28:18;;;;;;;;;41.25;34.50;;;;;1.32;94.41;101799.25;5019207;28;45375;-81
2023/03/02 06:30:44;;;;;;;;;46.75;38.25;;;;;1.29;94.34;101794.03;5019097;28;46132;-81
2023/03/02 06:33:09;;;;;;;;;49.75;37.25;;;;;1.28;94.22;101800.00;5037004;28;45344;-81
2023/03/02 06:35:35;;;;;;;;;41.25;33.75;;;;;1.31;93.91;101799.19;5037046;28;45317;-81
2023/03/02 06:38:00;;;;;;;;;38.00;27.00;;;;;1.31;93.65;101804.34;5018774;28;46096;-81
2023/03/02 06:40:25;;;;;;;;;49.00;35.00;;;;;1.34;93.79;101805.28;5018671;28;58650;-81
2023/03/02 06:42:51;;;;;;;;;45.25;32.75;;;;;1.37;93.39;101813.88;5018153;28;62158;-81
2023/03/02 06:45:16;;;;;;;;;41.50;38.00;;;;;1.41;94.14;101811.47;5035790;28;60647;-81
2023/03/02 06:47:41;;;;;;;;;49.75;42.75;;;;;1.39;94.38;101807.94;5036364;28;46471;-81
2023/03/02 06:50:08;;;;;;;;;50.75;35.50;;;;;1.37;94.85;101809.63;5028336;28;70110;-81
2023/03/02 06:52:34;;;;;;;;;54.75;40.00;;;;;1.36;94.45;101807.88;4999060;28;45384;-81
2023/03/02 06:54:59;;;;;;;;;52.00;35.50;;;;;1.37;94.72;101813.88;5016786;28;45416;-81
2023/03/02 06:57:32;;;;;;;;;49.75;37.50;;;;;1.39;95.45;101815.66;5015671;28;63891;-81
2023/03/02 06:59:57;;;;;;;;;47.00;34.50;;;;;1.38;94.94;101810.50;5016257;28;45973;-81
2023/03/02 07:02:23;;;;;;;;;45.00;36.50;;;;;1.40;95.01;101813.97;5016873;28;45320;-81
2023/03/02 07:04:48;;;;;;;;;51.25;41.75;;;;;1.41;95.35;101813.13;5016759;28;45401;-81
2023/03/02 07:07:14;;;;;;;;;40.00;29.25;;;;;1.44;95.38;101820.91;5016358;28;45418;-81
2023/03/02 07:09:39;;;;;;;;;47.00;35.00;;;;;1.44;95.12;101813.22;5016010;28;56374;-81
2023/03/02 07:12:05;;;;;;;;;46.75;33.00;;;;;1.44;94.90;101808.94;5015685;28;64352;-81
2023/03/02 07:14:30;;;;;;;;;50.75;31.00;;;;;1.45;95.35;101815.84;5001091;28;45474;-81
2023/03/02 07:16:56;;;;;;;;;48.75;39.50;;;;;1.47;95.34;101818.44;5036200;28;45310;-81
2023/03/02 07:19:21;;;;;;;;;34.00;31.00;;;;;1.47;94.80;101814.16;5018367;28;45383;-81
2023/03/02 07:21:47;;;;;;;;;44.50;34.00;;;;;1.50;95.50;101810.81;5018489;28;45328;-81
2023/03/02 07:24:12;;;;;;;;;43.00;36.00;;;;;1.52;94.92;101814.28;5036149;28;45199;-82
2023/03/02 07:26:37;;;;;;;;;42.50;36.00;;;;;1.55;95.61;101814.34;5035434;28;67801;-81
2023/03/02 07:29:03;;;;;;;;;45.75;36.25;;;;;1.55;95.34;101816.94;5017588;28;55577;-81
2023/03/02 07:31:28;;;;;;;;;42.00;33.00;;;;;1.57;95.55;101807.56;5017875;28;56032;-81
2023/03/02 07:33:53;;;;;;;;;56.00;36.50;;;;;1.59;96.20;101805.03;5035538;28;57586;-81
2023/03/02 07:36:19;;;;;;;;;52.75;37.00;;;;;1.59;95.35;101803.34;5017252;28;66439;-81
2023/03/02 07:38:44;;;;;;;;;57.50;39.75;;;;;1.64;95.84;101808.59;5018077;28;45393;-81
2023/03/02 07:41:10;;;;;;;;;61.00;38.50;;;;;1.62;95.22;101807.69;5035928;28;45326;-81
2023/03/02 07:43:35;;;;;;;;;63.25;38.25;;;;;1.64;96.17;101813.72;5017890;28;45306;-81
2023/03/02 07:46:03;;;;;;;;;43.75;35.00;;;;;1.66;96.19;101802.66;5035669;28;46066;-81
2023/03/02 07:48:28;;;;;;;;;50.75;39.75;;;;;1.70;95.55;101817.31;5025255;28;45977;-81
2023/03/02 07:51:01;;;;;;;;;50.50;39.00;;;;;1.76;96.48;101811.44;5035663;28;45530;-81
2023/03/02 07:53:27;;;;;;;;;49.00;42.00;;;;;1.82;95.78;101814.19;5035467;28;45285;-81
2023/03/02 07:55:52;;;;;;;;;50.00;38.75;;;;;1.84;96.01;101819.34;5034334;28;45520;-81
2023/03/02 07:58:18;;;;;;;;;46.00;39.00;;;;;1.89;95.95;101818.63;5035228;28;45377;-81
2023/03/02 08:00:43;;;;;;;;;44.50;35.00;;;;;1.97;95.18;101816.25;5035075;28;56269;-81
2023/03/02 08:03:08;;;;;;;;;59.25;40.50;;;;;2.07;95.10;101813.06;5034847;28;65429;-81
2023/03/02 08:05:34;;;;;;;;;53.75;39.00;;;;;2.17;95.93;101814.13;5034777;28;68692;-81
2023/03/02 08:07:59;;;;;;;;;48.50;37.50;;;;;2.22;95.06;101814.25;5033162;28;60080;-81
2023/03/02 08:10:24;;;;;;;;;58.00;41.50;;;;;2.27;93.84;101810.09;5034952;28;60211;-81
2023/03/02 08:12:50;;;;;;;;;48.25;38.00;;;;;2.32;93.25;101818.75;5035261;28;45307;-81
2023/03/02 08:15:15;;;;;;;;;51.75;37.25;;;;;2.33;94.88;101821.34;5034811;28;60851;-80
2023/03/02 08:17:40;;;;;;;;;61.50;43.75;;;;;2.33;95.26;101818.78;5033309;28;66471;-81
2023/03/02 08:20:07;;;;;;;;;56.00;44.50;;;;;2.32;95.00;101829.00;5035323;28;45264;-81
2023/03/02 08:22:32;;;;;;;;;50.25;37.00;;;;;2.36;94.54;101822.25;5035549;28;45478;-81
2023/03/02 08:24:57;;;;;;;;;52.75;32.75;;;;;2.38;95.47;101826.59;5035214;28;46196;-81
2023/03/02 08:27:23;;;;;;;;;58.25;45.25;;;;;2.42;94.40;101819.84;5034908;28;45233;-81
2023/03/02 08:29:48;;;;;;;;;39.75;32.50;;;;;2.47;93.82;101824.25;5034690;28;57903;-81
2023/03/02 08:32:13;;;;;;;;;58.75;41.75;;;;;2.56;92.93;101810.69;5034505;28;62604;-81
2023/03/02 08:34:40;;;;;;;;;57.50;42.50;;;;;2.67;93.33;101816.06;5034427;28;70429;-81
2023/03/02 08:37:05;;;;;;;;;57.00;44.50;;;;;2.74;93.17;101817.94;5034565;28;61764;-81
2023/03/02 08:39:31;;;;;;;;;57.75;40.50;;;;;2.78;93.52;101808.59;5035316;28;45435;-81
2023/03/02 08:41:57;;;;;;;;;51.75;42.25;;;;;2.79;93.47;101810.34;5034956;28;45315;-81
2023/03/02 08:44:22;;;;;;;;;54.00;43.25;;;;;2.85;93.47;101810.44;5035050;28;45469;-81
2023/03/02 08:46:48;;;;;;;;;55.00;40.50;;;;;2.89;93.92;101802.81;5035120;28;45472;-81
2023/03/02 08:49:15;;;;;;;;;61.25;44.00;;;;;2.99;92.87;101810.69;5033847;28;45384;-81
2023/03/02 08:51:40;;;;;;;;;60.25;47.50;;;;;3.09;92.20;101810.91;5035220;28;45440;-81
2023/03/02 08:54:05;;;;;;;;;46.75;39.25;;;;;3.20;92.00;101808.56;5034879;28;46607;-82
2023/03/02 08:56:34;;;;;;;;;62.00;41.75;;;;;3.26;91.96;101794.94;5033237;28;45340;-82
2023/03/02 08:59:05;;;;;;;;;63.00;42.50;;;;;3.32;91.93;101797.59;5035014;28;45474;-82
2023/03/02 09:01:33;;;;;;;;;55.75;41.50;;;;;3.39;91.15;101790.88;5033736;28;45321;-81
2023/03/02 09:03:59;;;;;;;;;60.50;43.75;;;;;3.43;91.52;101793.50;5033591;28;45459;-82
2023/03/02 09:06:27;;;;;;;;;60.25;43.00;;;;;3.48;91.04;101797.03;5049944;28;56597;-82
2023/03/02 09:08:52;;;;;;;;;60.25;42.50;;;;;3.59;90.53;101793.78;5033384;28;45469;-81
2023/03/02 09:11:18;;;;;;;;;60.50;43.00;;;;;3.67;89.96;101787.91;5034043;28;64494;-81
2023/03/02 09:13:43;;;;;;;;;46.25;39.75;;;;;3.76;89.85;101791.50;5034693;28;45420;-82
2023/03/02 09:16:12;;;;;;;;;54.00;39.75;;;;;3.82;89.50;101787.28;5033037;28;50272;-81
2023/03/02 09:18:37;;;;;;;;;52.00;40.50;;;;;3.90;88.50;101777.13;5034709;28;45304;-82
2023/03/02 09:21:03;;;;;;;;;51.00;37.00;;;;;3.98;88.81;101774.66;5035172;28;46351;-82
2023/03/02 09:23:29;;;;;;;;;61.75;44.50;;;;;4.08;88.27;101776.50;5037604;28;46634;-81
2023/03/02 09:25:54;;;;;;;;;46.50;39.75;;;;;4.17;88.82;101778.38;5038105;28;45424;-81
2023/03/02 09:28:20;;;;;;;;;45.00;37.50;;;;;4.23;88.32;101781.03;5038158;28;45491;-81
2023/03/02 09:30:50;;;;;;;;;48.50;35.50;;;;;4.32;87.12;101776.00;5037985;28;45390;-81
2023/03/02 09:33:16;;;;;;;;;48.00;33.75;;;;;4.41;87.38;101776.13;5037676;28;45673;-81
2023/03/02 09:35:41;;;;;;;;;45.25;34.00;;;;;4.50;86.43;101779.69;5037886;28;45387;-81
2023/03/02 09:38:07;;;;;;;;;47.50;38.75;;;;;4.56;85.99;101775.44;5037608;28;45315;-81
2023/03/02 09:40:36;;;;;;;;;51.50;41.25;;;;;4.63;85.83;101777.25;5037753;28;45446;-81
2023/03/02 09:43:23;;;;;;;;;53.50;39.25;;;;;4.74;85.46;101789.44;5035722;28;70106;-81
2023/03/02 09:46:13;;;;;;;;;54.25;35.50;;;;;4.85;85.03;101778.38;5037584;28;45963;-81
2023/03/02 09:48:45;;;;;;;;;47.75;36.25;;;;;4.99;84.91;101777.66;5037574;28;45409;-81
2023/03/02 09:51:33;;;;;;;;;49.00;37.25;;;;;5.09;84.19;101782.09;5021689;28;45428;-81
2023/03/02 09:54:13;;;;;;;;;47.00;36.75;;;;;5.15;83.64;101781.28;4999497;28;45710;-81
2023/03/02 09:56:46;;;;;;;;;48.50;36.00;;;;;5.23;83.16;101777.03;5017550;28;45453;-81
2023/03/02 09:59:24;;;;;;;;;48.00;32.50;;;;;5.30;82.96;101778.00;5000035;28;45524;-81
2023/03/02 10:02:05;;;;;;;;;56.75;41.75;;;;;5.33;82.43;101778.88;4999707;28;45445;-81
2023/03/02 10:04:37;;;;;;;;;52.50;39.75;;;;;5.40;82.62;101783.25;4999780;28;45388;-81
2023/03/02 10:07:27;;;;;;;;;53.50;41.75;;;;;5.47;82.33;101791.03;4999454;28;45391;-81
2023/03/02 10:09:54;;;;;;;;;50.75;39.50;;;;;5.52;81.72;101785.06;4999681;28;45393;-81
2023/03/02 10:12:44;;;;;;;;;49.25;37.75;;;;;5.59;81.69;101786.84;5017541;28;45355;-81
2023/03/02 10:15:16;;;;;;;;;51.25;41.50;;;;;5.63;81.45;101793.78;5025180;28;46193;-81
2023/03/02 10:18:03;;;;;;;;;50.50;42.00;;;;;5.70;81.78;101793.81;5019549;28;45925;-81
2023/03/02 10:20:37;;;;;;;;;50.25;44.00;;;;;5.79;81.08;101797.38;5019578;28;45377;-81
2023/03/02 10:23:29;;;;;;;;;50.25;36.25;;;;;5.89;80.56;101792.22;5019025;28;45395;-81
2023/03/02 10:26:04;;;;;;;;;53.50;38.00;;;;;5.96;80.69;101778.53;5036997;28;46587;-81
2023/03/02 10:28:36;;;;;;;;;54.50;41.50;;;;;6.06;79.86;101774.31;5019351;28;45985;-81
2023/03/02 10:31:08;;;;;;;;;45.75;35.00;;;;;6.16;79.23;101778.66;5036835;28;45283;-80
2023/03/02 10:33:36;;;;;;;;;61.25;42.25;;;;;6.26;79.12;101770.13;5037005;28;45448;-81
2023/03/02 10:36:04;;;;;;;;;58.25;42.00;;;;;6.36;79.29;101773.63;5018822;28;46729;-81
2023/03/02 10:38:31;;;;;;;;;48.75;38.50;;;;;6.46;79.21;101766.75;5019182;28;45902;-81
2023/03/02 10:41:01;;;;;;;;;47.25;40.00;;;;;6.56;78.42;101761.63;5037013;28;45353;-81
2023/03/02 10:43:49;;;;;;;;;53.00;38.75;;;;;6.64;78.04;101765.97;5019136;28;45483;-81
2023/03/02 10:46:14;;;;;;;;;47.25;38.50;;;;;6.73;78.20;101766.88;5018997;28;45294;-82
2023/03/02 10:48:55;;;;;;;;;48.75;40.50;;;;;6.82;76.05;101768.63;5036541;28;45302;-81
2023/03/02 10:51:31;;;;;;;;;53.25;38.75;;;;;6.90;76.70;101755.72;5019188;28;45373;-81
2023/03/02 10:54:03;;;;;;;;;48.75;35.75;;;;;6.95;75.52;101752.28;5016941;28;45433;-82
2023/03/02 10:56:29;;;;;;;;;53.00;38.00;;;;;7.05;76.40;101762.66;5016676;28;45624;-82
2023/03/02 10:59:01;;;;;;;;;16.25;10.50;;;;;7.10;75.60;101756.63;4998808;28;45476;-82
2023/03/02 11:01:27;;;;;;;;;60.75;41.25;;;;;7.21;75.86;101750.59;4999929;28;45409;-82
2023/03/02 11:03:55;;;;;;;;;44.50;41.50;;;;;7.30;75.06;101750.59;4999099;28;45436;-82
2023/03/02 11:06:24;;;;;;;;;54.00;41.75;;;;;7.41;75.53;101741.13;5016163;28;45547;-81
2023/03/02 11:09:06;;;;;;;;;58.50;37.00;;;;;7.59;75.26;101741.97;5016550;28;45867;-81
2023/03/02 11:11:32;;;;;;;;;45.00;37.00;;;;;7.72;75.02;101749.72;4998980;28;45339;-82
2023/03/02 11:14:14;;;;;;;;;47.00;41.75;;;;;7.81;73.64;101733.31;4998873;28;45299;-82
2023/03/02 11:16:39;;;;;;;;;47.25;39.25;;;;;7.93;73.60;101748.84;4978915;28;47264;-82
2023/03/02 11:19:34;;;;;;;;;43.00;39.00;;;;;8.07;73.46;101746.22;4978179;28;64544;-82